Forside
METAR-TAF:

METAR-TAF

Lufthavne :

Bahrain, Bahrain

Breddekreds: 26-16N, længdekreds: 050-39E, højde: 2 m

Aktuelle vejr

Denne rapport blev lavet for 32 minutter siden, kl. 12:30 UTC
Vind 20 kt fra nordnordvest med vindstød på up til 31 kt
Temperatur 36°C
Fugtighed 33%
Tryk 1000 hPa
Sigt 10 km eller mere
ingen skyer under 1500m og ingen cumulonimbus

METAR: OBBI 221230Z 33020G31KT CAVOK 36/17 Q1000 NOSIG

Tid: 16:02 (13:02 UTC)

Vejrudsigter

Denne rapport blev lavet for 2 timer og 18 minutter siden, kl. 10:44 UTC
Foreløbig gælder fra 22 på 12 UTC til 23 på 18 UTC
Vind 20 kt fra nordvest med vindstød på up til 30 kt
Sigt: 8000 m
ændring
fra 22 på 15 UTC til 22 på 17 UTC
Vind 12 kt fra nordnordvest
Sandsynlighed 30% :
Midlertidig
fra 22 på 15 UTC til 23 på 03 UTC
Sigt: 5000 m
Udbredt støv
ændring
fra 23 på 03 UTC til 23 på 05 UTC
Vind 17 kt fra nordvest med vindstød på up til 27 kt

TAF: OBBI 221044Z 2212/2318 32020G30KT 8000 NSC BECMG 2215/2217 33012KT PROB30 TEMPO 2215/2303 5000 DU BECMG 2303/2305 32017G27KT

Vejrobservationer og prognoser fra mere end 4000 lufthavne (METAR og TAF).

De gule og røde prikker repræsenterer de meteorologiske stationer.

Flyt musen over at se navnet på stationen.

Så klik over at se vejr observationer og prognoser.

At skifte det kort: Klik på de grønne knapper med et sort kors for at zoome ind; på den grønne knap med en bindestreg for at zoome ud; eller på de grønne pile for tilstødende kort.


METAR-TAF: